sensor_id;sensor_type;location;lat;lon;timestamp;P1;durP1;ratioP1;P2;durP2;ratioP2
19739;SDS011;10027;51.066;13.768;2023-01-30T00:00:52;7.77;;;4.30;;
19739;SDS011;10027;51.066;13.768;2023-01-30T00:03:19;6.27;;;3.60;;
19739;SDS011;10027;51.066;13.768;2023-01-30T00:05:46;7.70;;;4.43;;
19739;SDS011;10027;51.066;13.768;2023-01-30T00:08:13;8.20;;;4.33;;
19739;SDS011;10027;51.066;13.768;2023-01-30T00:10:41;6.80;;;3.97;;
19739;SDS011;10027;51.066;13.768;2023-01-30T00:13:08;6.27;;;3.43;;
19739;SDS011;10027;51.066;13.768;2023-01-30T00:15:36;7.70;;;4.37;;
19739;SDS011;10027;51.066;13.768;2023-01-30T00:18:03;7.47;;;4.40;;
19739;SDS011;10027;51.066;13.768;2023-01-30T00:20:30;8.53;;;4.60;;
19739;SDS011;10027;51.066;13.768;2023-01-30T00:22:57;7.63;;;4.30;;
19739;SDS011;10027;51.066;13.768;2023-01-30T00:25:26;7.20;;;3.90;;
19739;SDS011;10027;51.066;13.768;2023-01-30T00:27:54;7.73;;;3.93;;
19739;SDS011;10027;51.066;13.768;2023-01-30T00:30:21;7.97;;;4.10;;
19739;SDS011;10027;51.066;13.768;2023-01-30T00:32:52;7.23;;;4.30;;
19739;SDS011;10027;51.066;13.768;2023-01-30T00:35:20;7.57;;;4.17;;
19739;SDS011;10027;51.066;13.768;2023-01-30T00:37:47;7.03;;;4.10;;
19739;SDS011;10027;51.066;13.768;2023-01-30T00:40:14;7.13;;;4.33;;
19739;SDS011;10027;51.066;13.768;2023-01-30T00:42:42;8.27;;;4.37;;
19739;SDS011;10027;51.066;13.768;2023-01-30T00:45:28;8.33;;;4.47;;
19739;SDS011;10027;51.066;13.768;2023-01-30T00:48:14;9.53;;;4.37;;
19739;SDS011;10027;51.066;13.768;2023-01-30T00:50:41;7.23;;;4.23;;
19739;SDS011;10027;51.066;13.768;2023-01-30T00:53:11;8.20;;;4.67;;
19739;SDS011;10027;51.066;13.768;2023-01-30T00:55:39;7.80;;;3.83;;
19739;SDS011;10027;51.066;13.768;2023-01-30T00:58:06;8.30;;;4.33;;
19739;SDS011;10027;51.066;13.768;2023-01-30T01:00:33;7.37;;;3.77;;
19739;SDS011;10027;51.066;13.768;2023-01-30T01:03:01;6.50;;;4.13;;
19739;SDS011;10027;51.066;13.768;2023-01-30T01:05:28;7.10;;;4.30;;
19739;SDS011;10027;51.066;13.768;2023-01-30T01:07:55;7.27;;;4.07;;
19739;SDS011;10027;51.066;13.768;2023-01-30T01:10:22;7.80;;;4.00;;
19739;SDS011;10027;51.066;13.768;2023-01-30T01:12:49;6.67;;;3.80;;
19739;SDS011;10027;51.066;13.768;2023-01-30T01:15:20;7.73;;;4.37;;
19739;SDS011;10027;51.066;13.768;2023-01-30T01:17:47;8.50;;;4.23;;
19739;SDS011;10027;51.066;13.768;2023-01-30T01:20:15;7.27;;;4.30;;
19739;SDS011;10027;51.066;13.768;2023-01-30T01:22:42;7.90;;;4.40;;
19739;SDS011;10027;51.066;13.768;2023-01-30T01:25:09;9.43;;;4.80;;
19739;SDS011;10027;51.066;13.768;2023-01-30T01:27:37;7.33;;;4.00;;
19739;SDS011;10027;51.066;13.768;2023-01-30T01:30:04;8.50;;;4.33;;
19739;SDS011;10027;51.066;13.768;2023-01-30T01:32:32;7.53;;;4.43;;
19739;SDS011;10027;51.066;13.768;2023-01-30T01:34:59;7.80;;;4.33;;
19739;SDS011;10027;51.066;13.768;2023-01-30T01:37:26;8.67;;;4.37;;
19739;SDS011;10027;51.066;13.768;2023-01-30T01:39:53;8.23;;;4.53;;
19739;SDS011;10027;51.066;13.768;2023-01-30T01:42:39;7.17;;;4.23;;
19739;SDS011;10027;51.066;13.768;2023-01-30T01:47:57;8.60;;;4.10;;
19739;SDS011;10027;51.066;13.768;2023-01-30T01:50:30;6.13;;;3.87;;
19739;SDS011;10027;51.066;13.768;2023-01-30T01:53:04;7.43;;;3.77;;
19739;SDS011;10027;51.066;13.768;2023-01-30T01:55:32;8.10;;;4.43;;
19739;SDS011;10027;51.066;13.768;2023-01-30T01:58:13;7.03;;;3.77;;
19739;SDS011;10027;51.066;13.768;2023-01-30T02:00:42;7.03;;;4.27;;
19739;SDS011;10027;51.066;13.768;2023-01-30T02:03:10;9.80;;;4.37;;
19739;SDS011;10027;51.066;13.768;2023-01-30T02:05:40;7.80;;;4.40;;
19739;SDS011;10027;51.066;13.768;2023-01-30T02:08:12;7.80;;;4.47;;
19739;SDS011;10027;51.066;13.768;2023-01-30T02:13:17;8.07;;;4.10;;
19739;SDS011;10027;51.066;13.768;2023-01-30T02:15:44;8.20;;;4.23;;
19739;SDS011;10027;51.066;13.768;2023-01-30T02:18:12;10.53;;;4.40;;
19739;SDS011;10027;51.066;13.768;2023-01-30T02:36:37;8.07;;;4.47;;
19739;SDS011;10027;51.066;13.768;2023-01-30T02:44:41;9.17;;;4.30;;
19739;SDS011;10027;51.066;13.768;2023-01-30T02:47:10;8.03;;;4.30;;
19739;SDS011;10027;51.066;13.768;2023-01-30T02:49:40;7.37;;;4.13;;
19739;SDS011;10027;51.066;13.768;2023-01-30T02:52:08;7.23;;;4.23;;
19739;SDS011;10027;51.066;13.768;2023-01-30T02:54:37;9.20;;;4.73;;
19739;SDS011;10027;51.066;13.768;2023-01-30T02:57:15;6.53;;;4.00;;
19739;SDS011;10027;51.066;13.768;2023-01-30T02:59:43;6.97;;;3.50;;
19739;SDS011;10027;51.066;13.768;2023-01-30T03:04:51;6.60;;;3.73;;
19739;SDS011;10027;51.066;13.768;2023-01-30T03:12:28;5.47;;;3.67;;
19739;SDS011;10027;51.066;13.768;2023-01-30T03:14:59;6.60;;;3.70;;
19739;SDS011;10027;51.066;13.768;2023-01-30T03:17:29;6.63;;;3.73;;
19739;SDS011;10027;51.066;13.768;2023-01-30T03:19:58;7.37;;;3.60;;
19739;SDS011;10027;51.066;13.768;2023-01-30T03:22:25;8.03;;;3.97;;
19739;SDS011;10027;51.066;13.768;2023-01-30T03:24:52;5.93;;;3.50;;
19739;SDS011;10027;51.066;13.768;2023-01-30T03:27:20;5.80;;;3.70;;
19739;SDS011;10027;51.066;13.768;2023-01-30T03:29:47;6.70;;;3.73;;
19739;SDS011;10027;51.066;13.768;2023-01-30T03:32:15;5.23;;;3.43;;
19739;SDS011;10027;51.066;13.768;2023-01-30T03:34:42;5.77;;;3.47;;
19739;SDS011;10027;51.066;13.768;2023-01-30T03:37:09;5.27;;;3.23;;
19739;SDS011;10027;51.066;13.768;2023-01-30T03:39:36;6.07;;;3.70;;
19739;SDS011;10027;51.066;13.768;2023-01-30T03:42:03;5.37;;;3.30;;
19739;SDS011;10027;51.066;13.768;2023-01-30T03:44:30;7.83;;;3.30;;
19739;SDS011;10027;51.066;13.768;2023-01-30T03:46:57;5.50;;;3.33;;
19739;SDS011;10027;51.066;13.768;2023-01-30T03:49:24;6.03;;;3.20;;
19739;SDS011;10027;51.066;13.768;2023-01-30T03:51:52;7.30;;;3.47;;
19739;SDS011;10027;51.066;13.768;2023-01-30T03:54:19;6.33;;;3.53;;
19739;SDS011;10027;51.066;13.768;2023-01-30T03:56:46;5.03;;;3.23;;
19739;SDS011;10027;51.066;13.768;2023-01-30T03:59:13;6.47;;;3.83;;
19739;SDS011;10027;51.066;13.768;2023-01-30T04:01:40;6.07;;;3.63;;
19739;SDS011;10027;51.066;13.768;2023-01-30T04:04:07;5.70;;;3.17;;
19739;SDS011;10027;51.066;13.768;2023-01-30T04:06:34;6.47;;;3.40;;
19739;SDS011;10027;51.066;13.768;2023-01-30T04:09:02;7.23;;;3.80;;
19739;SDS011;10027;51.066;13.768;2023-01-30T04:11:29;6.93;;;3.43;;
19739;SDS011;10027;51.066;13.768;2023-01-30T04:13:56;8.03;;;3.70;;
19739;SDS011;10027;51.066;13.768;2023-01-30T04:16:24;6.93;;;3.40;;
19739;SDS011;10027;51.066;13.768;2023-01-30T04:18:51;8.53;;;3.80;;
19739;SDS011;10027;51.066;13.768;2023-01-30T04:21:19;6.87;;;4.00;;
19739;SDS011;10027;51.066;13.768;2023-01-30T04:23:46;6.37;;;3.37;;
19739;SDS011;10027;51.066;13.768;2023-01-30T04:26:13;7.97;;;3.80;;
19739;SDS011;10027;51.066;13.768;2023-01-30T04:28:41;5.53;;;3.33;;
19739;SDS011;10027;51.066;13.768;2023-01-30T04:31:09;7.47;;;4.20;;
19739;SDS011;10027;51.066;13.768;2023-01-30T04:33:37;7.23;;;3.60;;
19739;SDS011;10027;51.066;13.768;2023-01-30T04:36:05;8.30;;;4.30;;
19739;SDS011;10027;51.066;13.768;2023-01-30T04:38:33;6.63;;;3.97;;
19739;SDS011;10027;51.066;13.768;2023-01-30T04:41:01;6.23;;;3.80;;
19739;SDS011;10027;51.066;13.768;2023-01-30T04:43:29;7.27;;;3.60;;
19739;SDS011;10027;51.066;13.768;2023-01-30T04:45:56;7.40;;;4.10;;
19739;SDS011;10027;51.066;13.768;2023-01-30T04:48:24;7.97;;;4.63;;
19739;SDS011;10027;51.066;13.768;2023-01-30T04:50:52;6.77;;;4.17;;
19739;SDS011;10027;51.066;13.768;2023-01-30T04:53:19;6.83;;;3.90;;
19739;SDS011;10027;51.066;13.768;2023-01-30T04:55:46;6.27;;;3.90;;
19739;SDS011;10027;51.066;13.768;2023-01-30T04:58:14;7.70;;;3.93;;
19739;SDS011;10027;51.066;13.768;2023-01-30T05:00:41;6.87;;;4.20;;
19739;SDS011;10027;51.066;13.768;2023-01-30T05:03:08;7.13;;;3.90;;
19739;SDS011;10027;51.066;13.768;2023-01-30T05:05:35;8.53;;;4.43;;
19739;SDS011;10027;51.066;13.768;2023-01-30T05:08:02;7.33;;;4.23;;
19739;SDS011;10027;51.066;13.768;2023-01-30T05:10:30;7.50;;;4.10;;
19739;SDS011;10027;51.066;13.768;2023-01-30T05:13:00;7.37;;;4.30;;
19739;SDS011;10027;51.066;13.768;2023-01-30T05:15:27;9.17;;;4.67;;
19739;SDS011;10027;51.066;13.768;2023-01-30T05:17:55;8.97;;;4.33;;
19739;SDS011;10027;51.066;13.768;2023-01-30T05:20:22;6.30;;;4.10;;
19739;SDS011;10027;51.066;13.768;2023-01-30T05:22:49;9.07;;;4.63;;
19739;SDS011;10027;51.066;13.768;2023-01-30T05:25:16;6.20;;;3.97;;
19739;SDS011;10027;51.066;13.768;2023-01-30T05:27:44;6.77;;;4.03;;
19739;SDS011;10027;51.066;13.768;2023-01-30T05:30:11;7.33;;;4.53;;
19739;SDS011;10027;51.066;13.768;2023-01-30T05:32:38;7.50;;;4.30;;
19739;SDS011;10027;51.066;13.768;2023-01-30T05:35:05;7.00;;;4.17;;
19739;SDS011;10027;51.066;13.768;2023-01-30T05:37:32;6.23;;;3.87;;
19739;SDS011;10027;51.066;13.768;2023-01-30T05:40:00;8.13;;;4.40;;
19739;SDS011;10027;51.066;13.768;2023-01-30T05:42:27;7.30;;;4.17;;
19739;SDS011;10027;51.066;13.768;2023-01-30T05:44:54;6.93;;;4.40;;
19739;SDS011;10027;51.066;13.768;2023-01-30T05:47:21;7.23;;;4.47;;
19739;SDS011;10027;51.066;13.768;2023-01-30T05:49:48;6.60;;;4.33;;
19739;SDS011;10027;51.066;13.768;2023-01-30T05:52:15;7.80;;;4.70;;
19739;SDS011;10027;51.066;13.768;2023-01-30T05:54:42;8.83;;;4.47;;
19739;SDS011;10027;51.066;13.768;2023-01-30T05:57:09;7.27;;;4.37;;
19739;SDS011;10027;51.066;13.768;2023-01-30T05:59:36;6.43;;;4.70;;
19739;SDS011;10027;51.066;13.768;2023-01-30T06:02:03;7.60;;;4.00;;
19739;SDS011;10027;51.066;13.768;2023-01-30T06:04:31;7.70;;;5.00;;
19739;SDS011;10027;51.066;13.768;2023-01-30T06:06:58;9.80;;;5.33;;
19739;SDS011;10027;51.066;13.768;2023-01-30T06:09:25;7.97;;;4.63;;
19739;SDS011;10027;51.066;13.768;2023-01-30T06:11:52;8.13;;;4.90;;
19739;SDS011;10027;51.066;13.768;2023-01-30T06:14:20;7.33;;;4.50;;
19739;SDS011;10027;51.066;13.768;2023-01-30T06:16:47;6.43;;;3.97;;
19739;SDS011;10027;51.066;13.768;2023-01-30T06:19:15;7.87;;;4.37;;
19739;SDS011;10027;51.066;13.768;2023-01-30T06:21:42;8.40;;;4.73;;
19739;SDS011;10027;51.066;13.768;2023-01-30T06:24:09;7.10;;;4.63;;
19739;SDS011;10027;51.066;13.768;2023-01-30T06:26:36;6.77;;;4.73;;
19739;SDS011;10027;51.066;13.768;2023-01-30T06:29:03;7.77;;;4.53;;
19739;SDS011;10027;51.066;13.768;2023-01-30T06:31:30;7.17;;;4.47;;
19739;SDS011;10027;51.066;13.768;2023-01-30T06:33:57;8.20;;;4.50;;
19739;SDS011;10027;51.066;13.768;2023-01-30T06:36:24;6.87;;;4.43;;
19739;SDS011;10027;51.066;13.768;2023-01-30T06:38:51;7.50;;;4.40;;
19739;SDS011;10027;51.066;13.768;2023-01-30T06:41:19;6.77;;;4.10;;
19739;SDS011;10027;51.066;13.768;2023-01-30T06:43:46;6.30;;;4.10;;
19739;SDS011;10027;51.066;13.768;2023-01-30T06:46:13;7.67;;;4.40;;
19739;SDS011;10027;51.066;13.768;2023-01-30T06:48:40;7.77;;;4.37;;
19739;SDS011;10027;51.066;13.768;2023-01-30T06:51:07;6.77;;;4.20;;
19739;SDS011;10027;51.066;13.768;2023-01-30T06:53:35;8.77;;;4.67;;
19739;SDS011;10027;51.066;13.768;2023-01-30T06:56:02;6.23;;;4.43;;
19739;SDS011;10027;51.066;13.768;2023-01-30T06:58:29;7.20;;;4.13;;
19739;SDS011;10027;51.066;13.768;2023-01-30T07:00:56;6.67;;;4.60;;
19739;SDS011;10027;51.066;13.768;2023-01-30T07:03:23;5.97;;;3.93;;
19739;SDS011;10027;51.066;13.768;2023-01-30T07:05:50;6.93;;;4.20;;
19739;SDS011;10027;51.066;13.768;2023-01-30T07:08:18;6.37;;;3.90;;
19739;SDS011;10027;51.066;13.768;2023-01-30T07:10:46;6.07;;;4.10;;
19739;SDS011;10027;51.066;13.768;2023-01-30T07:13:14;6.20;;;4.13;;
19739;SDS011;10027;51.066;13.768;2023-01-30T07:15:43;5.87;;;4.00;;
19739;SDS011;10027;51.066;13.768;2023-01-30T07:18:10;7.30;;;4.40;;
19739;SDS011;10027;51.066;13.768;2023-01-30T07:20:37;7.50;;;4.17;;
19739;SDS011;10027;51.066;13.768;2023-01-30T07:23:05;6.23;;;4.10;;
19739;SDS011;10027;51.066;13.768;2023-01-30T07:25:32;7.83;;;3.90;;
19739;SDS011;10027;51.066;13.768;2023-01-30T07:28:00;8.57;;;4.13;;
19739;SDS011;10027;51.066;13.768;2023-01-30T07:30:29;5.37;;;3.93;;
19739;SDS011;10027;51.066;13.768;2023-01-30T07:32:56;5.53;;;3.70;;
19739;SDS011;10027;51.066;13.768;2023-01-30T07:35:24;5.90;;;3.80;;
19739;SDS011;10027;51.066;13.768;2023-01-30T07:37:52;5.37;;;3.50;;
19739;SDS011;10027;51.066;13.768;2023-01-30T07:40:19;5.03;;;3.40;;
19739;SDS011;10027;51.066;13.768;2023-01-30T07:43:03;6.07;;;3.83;;
19739;SDS011;10027;51.066;13.768;2023-01-30T07:45:34;5.17;;;3.43;;
19739;SDS011;10027;51.066;13.768;2023-01-30T07:48:01;6.33;;;3.80;;
19739;SDS011;10027;51.066;13.768;2023-01-30T07:50:28;5.33;;;3.43;;
19739;SDS011;10027;51.066;13.768;2023-01-30T07:52:56;5.67;;;3.60;;
19739;SDS011;10027;51.066;13.768;2023-01-30T07:55:23;5.70;;;3.23;;
19739;SDS011;10027;51.066;13.768;2023-01-30T07:57:50;5.60;;;3.37;;
19739;SDS011;10027;51.066;13.768;2023-01-30T08:00:17;4.47;;;3.20;;
19739;SDS011;10027;51.066;13.768;2023-01-30T08:02:45;4.73;;;2.83;;
19739;SDS011;10027;51.066;13.768;2023-01-30T08:05:12;4.50;;;3.17;;
19739;SDS011;10027;51.066;13.768;2023-01-30T08:07:39;4.03;;;2.97;;
19739;SDS011;10027;51.066;13.768;2023-01-30T08:10:06;4.67;;;3.20;;
19739;SDS011;10027;51.066;13.768;2023-01-30T08:12:37;5.10;;;2.97;;
19739;SDS011;10027;51.066;13.768;2023-01-30T08:15:05;7.07;;;3.00;;
19739;SDS011;10027;51.066;13.768;2023-01-30T08:17:32;4.53;;;3.07;;
19739;SDS011;10027;51.066;13.768;2023-01-30T08:19:59;4.80;;;2.73;;
19739;SDS011;10027;51.066;13.768;2023-01-30T08:22:27;3.97;;;2.83;;
19739;SDS011;10027;51.066;13.768;2023-01-30T08:24:54;4.50;;;3.17;;
19739;SDS011;10027;51.066;13.768;2023-01-30T08:27:21;5.03;;;3.00;;
19739;SDS011;10027;51.066;13.768;2023-01-30T08:29:49;5.20;;;3.07;;
19739;SDS011;10027;51.066;13.768;2023-01-30T08:32:16;4.20;;;3.10;;
19739;SDS011;10027;51.066;13.768;2023-01-30T08:34:43;4.60;;;2.80;;
19739;SDS011;10027;51.066;13.768;2023-01-30T08:37:10;4.70;;;3.03;;
19739;SDS011;10027;51.066;13.768;2023-01-30T08:39:37;4.93;;;3.13;;
19739;SDS011;10027;51.066;13.768;2023-01-30T08:42:04;3.63;;;2.80;;
19739;SDS011;10027;51.066;13.768;2023-01-30T08:44:32;3.97;;;2.43;;
19739;SDS011;10027;51.066;13.768;2023-01-30T08:46:59;3.57;;;2.57;;
19739;SDS011;10027;51.066;13.768;2023-01-30T08:49:26;3.97;;;2.73;;
19739;SDS011;10027;51.066;13.768;2023-01-30T08:51:53;3.47;;;2.40;;
19739;SDS011;10027;51.066;13.768;2023-01-30T08:54:20;3.70;;;2.40;;
19739;SDS011;10027;51.066;13.768;2023-01-30T08:56:47;3.87;;;2.60;;
19739;SDS011;10027;51.066;13.768;2023-01-30T08:59:14;2.83;;;2.23;;
19739;SDS011;10027;51.066;13.768;2023-01-30T09:01:41;4.13;;;2.57;;
19739;SDS011;10027;51.066;13.768;2023-01-30T09:04:08;3.23;;;2.50;;
19739;SDS011;10027;51.066;13.768;2023-01-30T09:06:35;3.47;;;2.30;;
19739;SDS011;10027;51.066;13.768;2023-01-30T09:09:03;3.47;;;2.10;;
19739;SDS011;10027;51.066;13.768;2023-01-30T09:11:30;2.60;;;2.00;;
19739;SDS011;10027;51.066;13.768;2023-01-30T09:13:57;2.47;;;1.83;;
19739;SDS011;10027;51.066;13.768;2023-01-30T09:16:24;3.43;;;2.20;;
19739;SDS011;10027;51.066;13.768;2023-01-30T09:18:51;2.97;;;2.10;;
19739;SDS011;10027;51.066;13.768;2023-01-30T09:21:18;5.27;;;1.90;;
19739;SDS011;10027;51.066;13.768;2023-01-30T09:23:47;2.97;;;1.90;;
19739;SDS011;10027;51.066;13.768;2023-01-30T09:26:14;2.47;;;1.73;;
19739;SDS011;10027;51.066;13.768;2023-01-30T09:28:41;2.63;;;1.80;;
19739;SDS011;10027;51.066;13.768;2023-01-30T09:31:08;3.23;;;2.00;;
19739;SDS011;10027;51.066;13.768;2023-01-30T09:33:35;2.40;;;1.70;;
19739;SDS011;10027;51.066;13.768;2023-01-30T09:36:03;2.50;;;1.70;;
19739;SDS011;10027;51.066;13.768;2023-01-30T09:38:30;2.07;;;1.60;;
19739;SDS011;10027;51.066;13.768;2023-01-30T09:48:20;2.43;;;1.73;;
19739;SDS011;10027;51.066;13.768;2023-01-30T09:56:05;2.30;;;1.60;;
19739;SDS011;10027;51.066;13.768;2023-01-30T10:01:21;2.00;;;1.60;;
19739;SDS011;10027;51.066;13.768;2023-01-30T10:04:01;2.40;;;1.90;;
19739;SDS011;10027;51.066;13.768;2023-01-30T10:06:31;1.90;;;1.60;;
19739;SDS011;10027;51.066;13.768;2023-01-30T10:09:06;2.43;;;1.90;;
19739;SDS011;10027;51.066;13.768;2023-01-30T10:22:35;2.17;;;1.33;;
19739;SDS011;10027;51.066;13.768;2023-01-30T10:27:40;2.10;;;1.53;;
19739;SDS011;10027;51.066;13.768;2023-01-30T10:30:13;2.30;;;1.50;;
19739;SDS011;10027;51.066;13.768;2023-01-30T10:32:43;2.20;;;1.60;;
19739;SDS011;10027;51.066;13.768;2023-01-30T10:35:16;2.97;;;1.83;;
19739;SDS011;10027;51.066;13.768;2023-01-30T10:37:45;2.03;;;1.50;;
19739;SDS011;10027;51.066;13.768;2023-01-30T10:40:17;2.70;;;1.47;;
19739;SDS011;10027;51.066;13.768;2023-01-30T10:45:16;1.97;;;1.30;;
19739;SDS011;10027;51.066;13.768;2023-01-30T10:51:10;1.63;;;1.10;;
19739;SDS011;10027;51.066;13.768;2023-01-30T10:53:27;2.17;;;1.30;;
19739;SDS011;10027;51.066;13.768;2023-01-30T10:56:13;1.83;;;1.53;;
19739;SDS011;10027;51.066;13.768;2023-01-30T11:01:31;2.73;;;1.33;;
19739;SDS011;10027;51.066;13.768;2023-01-30T11:04:00;1.67;;;1.40;;
19739;SDS011;10027;51.066;13.768;2023-01-30T11:06:28;3.07;;;1.27;;
19739;SDS011;10027;51.066;13.768;2023-01-30T11:08:57;1.93;;;1.33;;
19739;SDS011;10027;51.066;13.768;2023-01-30T11:14:10;1.43;;;1.20;;
19739;SDS011;10027;51.066;13.768;2023-01-30T11:19:14;1.37;;;1.17;;
19739;SDS011;10027;51.066;13.768;2023-01-30T11:21:47;1.60;;;1.10;;
19739;SDS011;10027;51.066;13.768;2023-01-30T11:24:18;1.73;;;1.00;;
19739;SDS011;10027;51.066;13.768;2023-01-30T11:26:46;1.17;;;0.90;;
19739;SDS011;10027;51.066;13.768;2023-01-30T11:29:27;1.30;;;1.20;;
19739;SDS011;10027;51.066;13.768;2023-01-30T11:31:55;2.13;;;1.30;;
19739;SDS011;10027;51.066;13.768;2023-01-30T11:34:27;2.73;;;1.37;;
19739;SDS011;10027;51.066;13.768;2023-01-30T11:37:10;1.60;;;1.10;;
19739;SDS011;10027;51.066;13.768;2023-01-30T11:39:38;1.97;;;1.30;;
19739;SDS011;10027;51.066;13.768;2023-01-30T11:42:13;1.53;;;1.30;;
19739;SDS011;10027;51.066;13.768;2023-01-30T11:44:40;1.70;;;1.40;;
19739;SDS011;10027;51.066;13.768;2023-01-30T11:47:08;1.87;;;1.30;;
19739;SDS011;10027;51.066;13.768;2023-01-30T11:49:40;1.83;;;1.40;;
19739;SDS011;10027;51.066;13.768;2023-01-30T11:52:29;1.60;;;1.10;;
19739;SDS011;10027;51.066;13.768;2023-01-30T11:54:57;1.73;;;1.10;;
19739;SDS011;10027;51.066;13.768;2023-01-30T11:57:43;2.60;;;1.37;;
19739;SDS011;10027;51.066;13.768;2023-01-30T12:02:42;2.03;;;1.40;;
19739;SDS011;10027;51.066;13.768;2023-01-30T12:07:47;2.07;;;1.70;;
19739;SDS011;10027;51.066;13.768;2023-01-30T12:10:24;1.70;;;1.30;;
19739;SDS011;10027;51.066;13.768;2023-01-30T12:12:53;1.87;;;1.40;;
19739;SDS011;10027;51.066;13.768;2023-01-30T12:25:40;3.10;;;2.10;;
19739;SDS011;10027;51.066;13.768;2023-01-30T12:28:13;1.87;;;1.37;;
19739;SDS011;10027;51.066;13.768;2023-01-30T12:30:46;1.97;;;1.50;;
19739;SDS011;10027;51.066;13.768;2023-01-30T12:33:15;2.57;;;1.20;;
19739;SDS011;10027;51.066;13.768;2023-01-30T12:49:21;3.97;;;1.50;;
19739;SDS011;10027;51.066;13.768;2023-01-30T12:56:56;3.33;;;1.53;;
19739;SDS011;10027;51.066;13.768;2023-01-30T12:59:33;1.60;;;1.40;;
19739;SDS011;10027;51.066;13.768;2023-01-30T13:10:01;1.90;;;1.57;;
19739;SDS011;10027;51.066;13.768;2023-01-30T13:12:37;2.10;;;1.40;;
19739;SDS011;10027;51.066;13.768;2023-01-30T13:17:40;2.63;;;1.67;;
19739;SDS011;10027;51.066;13.768;2023-01-30T13:25:35;5.73;;;1.70;;
19739;SDS011;10027;51.066;13.768;2023-01-30T13:28:06;3.07;;;1.67;;
19739;SDS011;10027;51.066;13.768;2023-01-30T13:30:35;2.10;;;1.10;;
19739;SDS011;10027;51.066;13.768;2023-01-30T13:33:04;3.57;;;1.23;;
19739;SDS011;10027;51.066;13.768;2023-01-30T13:35:34;2.73;;;1.70;;
19739;SDS011;10027;51.066;13.768;2023-01-30T13:38:02;2.93;;;1.50;;
19739;SDS011;10027;51.066;13.768;2023-01-30T13:40:32;2.97;;;1.47;;
19739;SDS011;10027;51.066;13.768;2023-01-30T13:43:05;2.20;;;1.17;;
19739;SDS011;10027;51.066;13.768;2023-01-30T13:45:39;2.60;;;1.43;;
19739;SDS011;10027;51.066;13.768;2023-01-30T13:51:40;1.97;;;1.40;;
19739;SDS011;10027;51.066;13.768;2023-01-30T13:56:20;7.63;;;1.37;;
19739;SDS011;10027;51.066;13.768;2023-01-30T14:02:22;3.03;;;1.40;;
19739;SDS011;10027;51.066;13.768;2023-01-30T14:12:36;3.30;;;1.33;;
19739;SDS011;10027;51.066;13.768;2023-01-30T14:15:18;2.20;;;1.40;;
19739;SDS011;10027;51.066;13.768;2023-01-30T14:20:25;5.27;;;1.40;;
19739;SDS011;10027;51.066;13.768;2023-01-30T14:22:53;2.20;;;1.40;;
19739;SDS011;10027;51.066;13.768;2023-01-30T14:27:49;2.50;;;1.27;;
19739;SDS011;10027;51.066;13.768;2023-01-30T14:32:58;2.90;;;1.00;;
19739;SDS011;10027;51.066;13.768;2023-01-30T14:35:26;3.30;;;1.73;;
19739;SDS011;10027;51.066;13.768;2023-01-30T14:38:13;5.07;;;1.90;;
19739;SDS011;10027;51.066;13.768;2023-01-30T14:40:42;2.30;;;1.33;;
19739;SDS011;10027;51.066;13.768;2023-01-30T14:48:30;2.83;;;1.10;;
19739;SDS011;10027;51.066;13.768;2023-01-30T14:51:15;4.33;;;1.43;;
19739;SDS011;10027;51.066;13.768;2023-01-30T14:53:54;2.53;;;0.93;;
19739;SDS011;10027;51.066;13.768;2023-01-30T14:56:56;3.57;;;1.10;;
19739;SDS011;10027;51.066;13.768;2023-01-30T15:01:52;1.83;;;1.17;;
19739;SDS011;10027;51.066;13.768;2023-01-30T15:04:20;3.33;;;1.10;;
19739;SDS011;10027;51.066;13.768;2023-01-30T15:06:47;4.57;;;1.17;;
19739;SDS011;10027;51.066;13.768;2023-01-30T15:09:16;2.37;;;1.20;;
19739;SDS011;10027;51.066;13.768;2023-01-30T15:11:44;4.53;;;1.07;;
19739;SDS011;10027;51.066;13.768;2023-01-30T15:14:17;3.97;;;1.20;;
19739;SDS011;10027;51.066;13.768;2023-01-30T15:24:23;4.00;;;2.20;;
19739;SDS011;10027;51.066;13.768;2023-01-30T15:26:57;1.77;;;1.10;;
19739;SDS011;10027;51.066;13.768;2023-01-30T15:32:00;2.43;;;1.10;;
19739;SDS011;10027;51.066;13.768;2023-01-30T15:34:28;2.83;;;1.10;;
19739;SDS011;10027;51.066;13.768;2023-01-30T15:36:55;2.80;;;1.00;;
19739;SDS011;10027;51.066;13.768;2023-01-30T15:39:23;3.03;;;1.20;;
19739;SDS011;10027;51.066;13.768;2023-01-30T15:41:51;2.50;;;1.00;;
19739;SDS011;10027;51.066;13.768;2023-01-30T15:52:04;2.43;;;1.13;;
19739;SDS011;10027;51.066;13.768;2023-01-30T15:54:32;3.03;;;1.30;;
19739;SDS011;10027;51.066;13.768;2023-01-30T15:56:59;2.73;;;1.00;;
19739;SDS011;10027;51.066;13.768;2023-01-30T16:01:58;1.70;;;0.80;;
19739;SDS011;10027;51.066;13.768;2023-01-30T16:04:26;3.17;;;1.30;;
19739;SDS011;10027;51.066;13.768;2023-01-30T16:06:54;3.13;;;1.30;;
19739;SDS011;10027;51.066;13.768;2023-01-30T16:09:22;4.47;;;1.30;;
19739;SDS011;10027;51.066;13.768;2023-01-30T16:11:49;4.93;;;1.50;;
19739;SDS011;10027;51.066;13.768;2023-01-30T16:14:17;4.83;;;1.73;;
19739;SDS011;10027;51.066;13.768;2023-01-30T16:19:25;3.60;;;1.50;;
19739;SDS011;10027;51.066;13.768;2023-01-30T16:21:54;3.73;;;1.40;;
19739;SDS011;10027;51.066;13.768;2023-01-30T16:24:23;3.07;;;1.40;;
19739;SDS011;10027;51.066;13.768;2023-01-30T16:26:56;3.50;;;1.50;;
19739;SDS011;10027;51.066;13.768;2023-01-30T16:29:26;3.63;;;1.40;;
19739;SDS011;10027;51.066;13.768;2023-01-30T16:31:54;3.90;;;1.60;;
19739;SDS011;10027;51.066;13.768;2023-01-30T16:36:51;2.03;;;1.40;;
19739;SDS011;10027;51.066;13.768;2023-01-30T16:39:38;5.73;;;1.70;;
19739;SDS011;10027;51.066;13.768;2023-01-30T16:45:40;3.07;;;1.63;;
19739;SDS011;10027;51.066;13.768;2023-01-30T16:51:34;6.63;;;2.20;;
19739;SDS011;10027;51.066;13.768;2023-01-30T16:53:36;5.83;;;1.80;;
19739;SDS011;10027;51.066;13.768;2023-01-30T16:56:08;3.67;;;1.73;;
19739;SDS011;10027;51.066;13.768;2023-01-30T16:58:36;3.10;;;1.40;;
19739;SDS011;10027;51.066;13.768;2023-01-30T17:01:04;4.33;;;1.90;;
19739;SDS011;10027;51.066;13.768;2023-01-30T17:03:36;6.23;;;2.20;;
19739;SDS011;10027;51.066;13.768;2023-01-30T17:06:05;4.37;;;1.50;;
19739;SDS011;10027;51.066;13.768;2023-01-30T17:08:48;5.50;;;1.70;;
19739;SDS011;10027;51.066;13.768;2023-01-30T17:11:52;5.60;;;1.70;;
19739;SDS011;10027;51.066;13.768;2023-01-30T17:14:22;5.20;;;1.30;;
19739;SDS011;10027;51.066;13.768;2023-01-30T17:19:29;4.33;;;1.27;;
19739;SDS011;10027;51.066;13.768;2023-01-30T17:21:56;5.47;;;1.80;;
19739;SDS011;10027;51.066;13.768;2023-01-30T17:24:24;4.37;;;1.60;;
19739;SDS011;10027;51.066;13.768;2023-01-30T17:26:52;4.27;;;1.97;;
19739;SDS011;10027;51.066;13.768;2023-01-30T17:29:24;3.23;;;1.33;;
19739;SDS011;10027;51.066;13.768;2023-01-30T17:32:08;7.63;;;1.80;;
19739;SDS011;10027;51.066;13.768;2023-01-30T17:34:36;4.93;;;1.40;;
19739;SDS011;10027;51.066;13.768;2023-01-30T17:37:08;7.60;;;1.33;;
19739;SDS011;10027;51.066;13.768;2023-01-30T17:39:36;3.87;;;1.40;;
19739;SDS011;10027;51.066;13.768;2023-01-30T17:42:04;5.17;;;1.63;;
19739;SDS011;10027;51.066;13.768;2023-01-30T17:44:31;3.57;;;1.30;;
19739;SDS011;10027;51.066;13.768;2023-01-30T17:46:59;3.77;;;1.50;;
19739;SDS011;10027;51.066;13.768;2023-01-30T17:49:26;5.80;;;1.40;;
19739;SDS011;10027;51.066;13.768;2023-01-30T17:51:53;4.73;;;1.30;;
19739;SDS011;10027;51.066;13.768;2023-01-30T17:54:20;5.33;;;1.50;;
19739;SDS011;10027;51.066;13.768;2023-01-30T17:56:51;5.20;;;1.53;;
19739;SDS011;10027;51.066;13.768;2023-01-30T17:59:18;4.87;;;1.30;;